Shoshone, California Weather observations

Data are for observation ending at time listed.
 Day   Time    Ave.   Ave.  Ave.  Vector   Max.   Stn.    Total    Solar   Ave.  
  of    of     Air    Rel.  Wind   Wind    Wind   Baro.  Precip.   Rad.    Soil  
Year   Day     Temp.  Hum.  Speed  Dir.    Gust   Pres.                    Temp. 
2026   (PST)    F      %     mph   deg.    mph     mb.     in.     W/m2     F   
------------------------------------------------------------------------------
 125    2:10   59.0    47    4.2   191     11.2    964     0.00       0    33.7
 125    2:20   59.5    47    5.1   188      8.9    964     0.00       0    34.5
 125    2:30   59.1    48    2.6   182      6.5    964     0.00       0    35.5
 125    2:40   58.0    50    0.5   159      1.8    964     0.00       0    36.2
 125    2:50   57.3    51    0.4   175      2.7    964     0.00       0    36.2
 125    3:00   57.4    51    0.0   174      1.1    964     0.00       0    35.8
 125    3:10   57.1    51    0.9    84      2.3    964     0.00       0    35.3
 125    3:20   56.8    51    1.5    34      5.0    964     0.00       0    34.9
 125    3:30   56.4    52    2.8    34      4.7    964     0.00       0    34.6
 125    3:40   55.3    54    0.5    51      1.8    964     0.00       0    34.3
 125    3:50   54.0    56    0.8   290      2.1    964     0.00       0    33.7
 125    4:00   53.7    57    2.6    23      3.9    964     0.00       0    32.8
 125    4:10   55.0    55    2.1    46      4.0    964     0.00       0    32.1
 125    4:20   53.7    57    1.5   123      3.1    964     0.00       0    31.7
 125    4:30   53.5    58    0.1   134      1.5    964     0.00       0    31.2
 125    4:40   53.5    58    0.5   145      1.8    964     0.00       4    30.5
 125    4:50   53.4    57    0.9    82      2.3    964     0.00       7    29.9
 125    5:00   54.5    56    0.2   110      1.5    964     0.00      15    29.6
 125    5:10   55.5    56    0.1   164      1.8    964     0.00      32    29.4
 125    5:20   56.8    54    0.7   168      3.4    964     0.00      40    29.5
 125    5:30   57.5    52    0.7   183      3.3    964     0.00      47    30.2
 125    5:40   58.0    52    1.3   166      3.4    965     0.00     101    31.3
 125    5:50   60.3    49    0.4   186      2.1    965     0.00     145    32.6
 125    6:00   61.6    46    1.8   169      4.2    965     0.00     172    34.6
 125    6:10   61.7    46    1.6   167      5.0    965     0.00     211    37.3
 125    6:20   62.2    45    2.4   166      7.3    965     0.00     248    40.3
 125    6:30   61.5    46    4.5   170     11.8    965     0.00     283    43.3
 125    6:40   61.9    45    3.7   168     10.2    965     0.00     322    46.0
 125    6:50   62.1    45    4.4   174     10.4    965     0.00     316    48.5
 125    7:00   61.9    46    3.7   167     10.4    965     0.00     315    50.5
 125    7:10   62.1    45    4.4   167     10.2    965     0.00     389    52.0
 125    7:20   63.5    43    1.7   171      7.0    965     0.00     409    53.5
 125    7:30   64.0    42    3.9   168      9.1    965     0.00     495    55.2
 125    7:40   63.6    42    5.3   169     12.4    965     0.00     532    57.1
 125    7:50   63.8    42    4.8   169     11.3    965     0.00     568    58.7
 125    8:00   64.7    41    3.0   164     11.0    965     0.00     597    60.3
 125    8:10   65.1    40    5.2   173     15.3    965     0.00     616    61.9
 125    8:20   65.7    39    3.3   172      8.6    965     0.00     585    63.3
 125    8:30   65.2    39    3.6   176     12.4    966     0.00     528    64.5
 125    8:40   66.6    37    2.6   166      8.2    966     0.00     595    65.1
 125    8:50   66.5    36    1.6   161      5.0    966     0.00     505    65.7
 125    9:00   66.2    36    3.7   178     10.4    966     0.00     571    66.0
 125    9:10   66.8    36    3.0   156     10.5    966     0.00     781    66.2
 125    9:20   68.1    34    3.6   172      8.6    966     0.00     812    66.9
 125    9:30   68.5    33    2.7   147      7.3    966     0.00     758    68.2
 125    9:40   68.8    33    2.6   175      7.6    966     0.00     852    69.3
 125    9:50   70.1    31    2.7   172      7.1    966     0.00     861    70.5
 125   10:00   69.7    32    1.8   147      5.4    966     0.00     809    71.7
 125   10:10   70.0    31    3.2   124      9.5    966     0.00     832    72.3
 125   10:20   69.3    32    3.6   117      7.5    966     0.00     776    72.5
 125   10:30   69.5    32    3.3   167      9.3    966     0.00     664    72.2
 125   10:40   70.3    31    2.2   146      5.7    966     0.00     792    71.6
 125   10:50   70.2    31    4.1   164     12.0    966     0.00     717    71.1
 125   11:00   70.7    30    2.9   154      8.1    966     0.00     681    70.6
 125   11:10   70.3    30    2.8   123     11.2    966     0.00     466    70.0
 125   11:20   70.2    30    3.7   154     12.1    966     0.00     774    69.2
 125   11:30   72.1    29    2.2   161      6.6    966     0.00     994    68.7
 125   11:40   71.6    29    2.8   103      8.1    965     0.00     615    68.9
 125   11:50   71.0    29    3.7   159      9.9    965     0.00     746    69.0
 125   12:00   73.0    27    2.8   162      9.3    965     0.00     996    69.0
 125   12:10   73.7    26    3.3   170     11.8    965     0.00    1061    69.8
 125   12:20   72.8    26    5.2   193     11.5    965     0.00    1071    70.8
 125   12:30   73.6    25    4.4   187     10.8    965     0.00    1028    71.7
 125   12:40   73.7    24    4.0   216      8.3    965     0.00    1006    72.8
 125   12:50   75.0    22    3.1   290      6.1    965     0.00    1010    74.2
 125   13:00   76.6    21    2.6   207      8.5    964     0.00     854    76.2
 125   13:10   76.2    22    3.2   173      8.8    964     0.00     720    78.0
 125   13:20   74.7    22    4.4   110      8.9    964     0.00     788    78.8
 125   13:30   75.7    22    5.8   174     12.9    964     0.00     900    79.0
 125   13:40   75.3    22    3.9   213     10.2    964     0.00     872    79.3
 125   13:50   75.6    22    3.2   148      8.9    964     0.00     848    79.7
 125   14:00   76.8    21    2.9   125      9.7    964     0.00     828    80.1
 125   14:10   77.0    21    4.3   178     11.2    964     0.00     805    80.8
 125   14:20   75.7    21    5.7   178     12.1    964     0.00     782    81.1
 125   14:30   76.6    20    3.1   149      8.6    963     0.00     758    80.9
 125   14:40   77.2    19    2.9    64      9.0    963     0.00     733    81.0
 125   14:50   77.1    20    4.6   183     10.3    963     0.00     706    81.3
 125   15:00   77.4    19    3.6   169     12.1    963     0.00     678    81.4
 125   15:10   77.2    18    3.2   131      8.9    963     0.00     650    81.5
 125   15:20   77.7    18    2.9   178      9.1    963     0.00     619    81.6
 125   15:30   78.2    18    2.5   126      7.2    963     0.00     589    81.8
 125   15:40   78.6    18    2.7   118      6.3    963     0.00     558    82.1
 125   15:50   77.4    18    2.6   103      6.7    963     0.00     527    82.3
 125   16:00   77.5    18    4.2   181      9.2    963     0.00     494    82.3
 125   16:10   78.0    18    4.2   162     11.8    963     0.00     459    82.0
 125   16:20   78.0    17    4.0   170      7.5    963     0.00     425    81.6
 125   16:30   77.6    17    1.4   123      4.9    963     0.00     390    81.3
 125   16:40   78.4    16    2.2    73      5.3    963     0.00     354    81.1
 125   16:50   79.2    16    1.8   185      5.1    963     0.00     318    80.9
 125   17:00   79.6    15    2.1   186      5.8    963     0.00     283    80.6
 125   17:10   78.7    15    2.8   191      6.1    963     0.00     249    80.3
 125   17:20   79.4    15    1.4   184      3.6    963     0.00     213    79.7
 125   17:30   78.7    15    2.2   177      5.6    963     0.00     167    78.9
 125   17:40   78.0    16    1.8   156      5.3    963     0.00     150    77.9
 125   17:50   78.3    16    1.2   164      3.8    963     0.00     100    76.9
 125   18:00   77.4    16    1.0   132      3.5    963     0.00      78    75.6
 125   18:10   77.1    16    0.8   141      2.3    963     0.00      60    74.0
 125   18:20   76.7    17    0.2   152      1.6    963     0.00      35    72.5
 125   18:30   74.9    18    0.6   146      2.2    963     0.00      12    70.5
 125   18:40   72.3    21    0.0     0      0.0    963     0.00       7    67.9
 125   18:50   71.0    21    0.0     0      0.0    963     0.00       2    64.9
 125   19:00   69.9    22    0.2    58      1.2    963     0.00       0    61.7
 125   19:10   68.8    24    0.9    67      1.5    963     0.00       0    58.8
 125   19:20   69.1    22    1.4    81      2.3    964     0.00       0    56.2
 125   19:30   69.0    22    0.9    80      2.0    964     0.00       0    54.2
 125   19:40   68.6    22    1.0    78      1.5    964     0.00       0    52.6
 125   19:50   68.1    22    1.4    78      2.0    964     0.00       0    51.2
 125   20:00   68.1    22    0.8    83      1.3    964     0.00       0    50.0
 125   20:10   67.7    24    0.8    76      1.3    964     0.00       0    49.0
 125   20:20   66.8    25    1.0    52      2.0    964     0.00       0    48.2
 125   20:30   66.6    25    0.3    67      1.7    965     0.00       0    47.2
 125   20:40   66.1    25    0.5    70      1.5    965     0.00       0    46.3
 125   20:50   65.8    25    1.2    68      3.7    965     0.00       0    45.4
 125   21:00   63.8    28    0.6   265      2.5    965     0.00       0    44.7
 125   21:10   66.0    30    2.5   208      7.1    966     0.00       0    43.9
 125   21:20   70.1    29    4.6   194      9.1    966     0.00       0    44.0
 125   21:30   70.0    30    4.8   190      9.3    966     0.00       0    45.5
 125   21:40   69.9    30    5.0   193     10.4    966     0.00       0    47.3
 125   21:50   69.7    30    4.4   189     10.1    966     0.00       0    48.9
 125   22:00   69.3    30    3.7   206      7.2    966     0.00       0    50.2
 125   22:10   68.9    31    3.4   202      7.4    966     0.00       0    51.0
 125   22:20   68.6    31    3.4   187      8.6    966     0.00       0    51.4
 125   22:30   67.9    32    1.2   151      5.6    966     0.00       0    51.6
 125   22:40   67.0    33    1.7   166      6.1    966     0.00       0    51.2
 125   22:50   66.3    34    1.6   166      6.1    966     0.00       0    50.5
 125   23:00   67.0    33    5.8   177     12.4    966     0.00       0    49.7
 125   23:10   66.7    33    1.0   165      4.3    966     0.00       0    49.5
 125   23:20   65.3    34    0.7   184      3.0    967     0.00       0    49.0
 125   23:30   64.5    35    0.9    82      2.3    967     0.00       0    48.2
 125   23:40   64.1    35    0.3   137      2.1    967     0.00       0    47.2
 125   23:50   63.3    37    0.2    60      1.0    967     0.00       0    46.0
 126    0:00   63.1    38    0.3   172      3.0    967     0.00       0    44.8
 126    0:10   63.5    38    0.2   175      2.8    967     0.00       0    43.7
 126    0:20   63.6    38    0.6   179      2.6    967     0.00       0    42.8
 126    0:30   63.8    38    1.9   167      6.0    967     0.00       0    42.4
 126    0:40   63.6    39    2.9   167      7.5    967     0.00       0    42.3
 126    0:50   63.4    40    3.2   172      8.7    967     0.00       0    42.4
 126    1:00   63.4    40    3.4   169      9.2    967     0.00       0    42.7
 126    1:10   63.0    40    4.4   173      9.7    967     0.00       0    43.0
 126    1:20   62.9    41    5.4   173     10.7    967     0.00       0    43.3
 126    1:30   62.9    41    4.0   175      9.6    968     0.00       0    43.7
 126    1:40   62.4    42    2.9   172      7.2    968     0.00       0    43.8
 126    1:50   62.5    42    4.3   175      8.9    968     0.00       0    43.8
 126    2:00   62.4    42    2.9   171      6.1    968     0.00       0    43.7

Return to Shoshone, California graphs page.


Western Regional Climate Center,wrcc@dri.edu